Time;durP1;ratioP1;P1;durP2;ratioP2;P2;SDS_P1;SDS_P2;PMS_P1;PMS_P2;Temp;Humidity;BMP_temperature;BMP_pressure;BME280_temperature;BME280_humidity;BME280_pressure;Samples;Min_cycle;Max_cycle;Signal;HPM_P1;HPM_P2
2021/11/14 00:01:24;;;;;;;18.05;12.55;;;;;;;3.04;65.69;101666.16;1780250;78;21493;-60
2021/11/14 00:03:51;;;;;;;20.92;12.78;;;;;;;3.09;65.42;101663.01;1799697;77;21120;-60
2021/11/14 00:06:20;;;;;;;21.95;12.98;;;;;;;3.12;65.45;101660.29;1800487;77;20983;-60
2021/11/14 00:08:50;;;;;;;23.57;13.40;;;;;;;3.12;65.72;101657.69;1796124;78;21073;-60
2021/11/14 00:11:18;;;;;;;25.20;14.55;;;;;;;3.14;65.83;101662.42;1798839;78;21386;-60
2021/11/14 00:13:46;;;;;;;20.20;13.15;;;;;;;3.11;65.99;101659.91;1799939;78;21015;-60
2021/11/14 00:16:14;;;;;;;23.10;14.60;;;;;;;3.11;65.94;101663.81;1805409;78;21055;-60
2021/11/14 00:18:41;;;;;;;23.60;14.75;;;;;;;3.11;65.85;101666.83;1797692;78;21030;-60
2021/11/14 00:21:08;;;;;;;22.40;14.58;;;;;;;3.09;65.82;101670.81;1800115;78;21077;-61
2021/11/14 00:23:35;;;;;;;24.02;15.55;;;;;;;3.08;65.89;101666.95;1784815;78;21183;-60
2021/11/14 00:26:02;;;;;;;24.18;16.97;;;;;;;3.07;65.87;101668.67;1780495;78;21100;-60
2021/11/14 00:28:28;;;;;;;25.80;16.05;;;;;;;3.03;65.90;101660.57;1800319;78;21544;-60
2021/11/14 00:30:57;;;;;;;24.67;16.17;;;;;;;3.03;65.98;101660.57;1798383;78;21651;-60
2021/11/14 00:33:23;;;;;;;21.62;15.03;;;;;;;3.02;66.01;101664.51;1780067;78;21041;-60
2021/11/14 00:35:52;;;;;;;24.45;15.90;;;;;;;3.03;66.06;101664.92;1783818;78;21108;-61
2021/11/14 00:38:20;;;;;;;24.55;16.37;;;;;;;3.10;66.09;101664.69;1800919;78;21110;-61
2021/11/14 00:40:47;;;;;;;25.62;16.80;;;;;;;3.21;66.16;101668.73;1794031;78;21540;-61
2021/11/14 00:43:13;;;;;;;30.10;15.20;;;;;;;3.29;66.23;101664.16;1792897;78;21148;-60
2021/11/14 00:45:44;;;;;;;25.75;16.75;;;;;;;3.37;66.36;101667.86;1794551;78;21565;-61
2021/11/14 00:48:09;;;;;;;25.12;14.68;;;;;;;3.40;66.27;101667.31;1782532;78;21054;-61
2021/11/14 00:50:43;;;;;;;26.07;15.53;;;;;;;3.44;66.12;101663.70;1804520;78;21003;-61
2021/11/14 00:53:06;;;;;;;23.67;16.17;;;;;;;3.45;65.77;101656.31;1800756;78;21126;-61
2021/11/14 00:55:34;;;;;;;22.13;15.03;;;;;;;3.44;65.40;101653.76;1787829;78;21137;-61
2021/11/14 00:58:01;;;;;;;23.20;14.28;;;;;;;3.39;65.25;101646.08;1799909;79;21042;-61
2021/11/14 01:00:28;;;;;;;24.43;14.75;;;;;;;3.36;65.33;101648.77;1799660;77;21811;-61
2021/11/14 01:02:55;;;;;;;26.27;15.93;;;;;;;3.34;65.13;101653.17;1781189;79;21522;-61
2021/11/14 01:05:22;;;;;;;27.17;16.87;;;;;;;3.33;65.19;101654.09;1782824;78;21026;-61
2021/11/14 01:07:49;;;;;;;31.35;16.52;;;;;;;3.31;65.29;101650.23;1776931;79;20996;-61
2021/11/14 01:10:19;;;;;;;25.85;17.17;;;;;;;3.30;65.33;101646.38;1798292;77;21049;-61
2021/11/14 01:12:46;;;;;;;24.47;15.60;;;;;;;3.30;65.23;101648.52;1799556;79;21163;-61
2021/11/14 01:15:13;;;;;;;25.90;17.87;;;;;;;3.30;65.18;101650.27;1806812;79;21117;-61
2021/11/14 01:17:42;;;;;;;26.73;17.57;;;;;;;3.27;65.26;101649.90;1803136;79;21053;-61
2021/11/14 01:20:12;;;;;;;28.10;17.77;;;;;;;3.27;65.12;101647.75;1774513;79;21503;-61
2021/11/14 01:22:39;;;;;;;25.43;16.82;;;;;;;3.32;65.04;101643.27;1775316;79;21105;-61
2021/11/14 01:25:09;;;;;;;29.15;17.67;;;;;;;3.38;65.01;101645.70;1779921;79;21640;-61
2021/11/14 01:27:36;;;;;;;27.42;15.72;;;;;;;3.43;64.96;101648.14;1808894;78;21065;-61
2021/11/14 01:30:07;;;;;;;24.50;16.50;;;;;;;3.45;64.90;101643.77;1775167;79;21070;-61
2021/11/14 01:32:34;;;;;;;30.08;16.90;;;;;;;3.44;64.77;101646.80;1801814;79;21604;-60
2021/11/14 01:35:00;;;;;;;25.57;16.55;;;;;;;3.43;64.53;101642.51;1807539;77;21117;-60
2021/11/14 01:37:26;;;;;;;28.85;17.52;;;;;;;3.40;64.27;101652.16;1795816;77;22178;-60
2021/11/14 01:39:53;;;;;;;31.57;17.35;;;;;;;3.32;64.17;101649.77;1801425;77;21687;-60
2021/11/14 01:42:20;;;;;;;27.87;18.62;;;;;;;3.25;64.25;101652.16;1801817;78;21053;-60
2021/11/14 01:44:46;;;;;;;26.82;16.93;;;;;;;3.20;64.43;101652.73;1784926;79;21058;-60
2021/11/14 01:47:13;;;;;;;30.65;19.25;;;;;;;3.16;64.62;101644.14;1795409;79;21050;-61
2021/11/14 01:49:39;;;;;;;28.83;19.23;;;;;;;3.12;64.67;101643.84;1773361;79;21851;-60
2021/11/14 01:52:21;;;;;;;30.72;17.37;;;;;;;3.09;64.89;101650.00;1795295;77;21054;-60
2021/11/14 01:54:47;;;;;;;25.00;17.65;;;;;;;3.07;64.98;101653.53;1767713;79;21089;-61
2021/11/14 01:57:14;;;;;;;26.97;18.45;;;;;;;3.04;64.96;101653.16;1761607;79;21486;-61
2021/11/14 01:59:41;;;;;;;30.80;19.05;;;;;;;3.02;65.13;101652.81;1724180;81;21120;-60
2021/11/14 02:02:07;;;;;;;35.68;19.42;;;;;;;3.04;65.17;101660.95;1720980;80;21456;-60
2021/11/14 02:04:34;;;;;;;27.17;17.87;;;;;;;3.06;65.14;101653.11;1707664;81;21098;-62
2021/11/14 02:07:01;;;;;;;25.02;17.57;;;;;;;3.06;65.28;101653.11;1724040;80;21101;-60
2021/11/14 02:09:31;;;;;;;25.62;17.65;;;;;;;3.06;65.47;101645.31;1728446;80;22493;-60
2021/11/14 02:11:58;;;;;;;32.00;18.45;;;;;;;3.13;65.43;101653.36;1730669;80;21017;-60
2021/11/14 02:14:24;;;;;;;27.22;17.32;;;;;;;3.26;65.18;101651.23;1726752;80;21213;-61
2021/11/14 02:16:51;;;;;;;27.93;17.45;;;;;;;3.37;65.11;101649.19;1724878;80;21106;-60
2021/11/14 02:19:17;;;;;;;28.20;16.23;;;;;;;3.49;65.15;101642.30;1706392;81;21228;-61
2021/11/14 02:21:44;;;;;;;27.98;16.20;;;;;;;3.59;65.24;101646.78;1729864;80;21074;-61
2021/11/14 02:24:10;;;;;;;29.20;16.55;;;;;;;3.60;65.16;101651.53;1728151;80;21070;-61
2021/11/14 02:26:37;;;;;;;27.48;17.30;;;;;;;3.60;65.08;101657.61;1737317;80;21101;-61
2021/11/14 02:29:03;;;;;;;29.98;16.65;;;;;;;3.61;64.86;101653.25;1737045;80;21596;-61
2021/11/14 02:31:31;;;;;;;26.45;16.90;;;;;;;3.60;64.92;101654.13;1735690;80;21075;-61
2021/11/14 02:33:58;;;;;;;26.35;15.78;;;;;;;3.59;65.17;101653.75;1730148;80;21516;-60
2021/11/14 02:36:25;;;;;;;26.30;16.93;;;;;;;3.59;65.21;101660.25;1733169;80;21070;-61
2021/11/14 02:38:52;;;;;;;26.02;15.23;;;;;;;3.59;65.36;101654.59;1739627;80;21133;-61
2021/11/14 02:41:19;;;;;;;26.62;16.05;;;;;;;3.58;65.52;101654.63;1732726;81;21083;-61
2021/11/14 02:43:48;;;;;;;24.90;15.75;;;;;;;3.57;65.70;101656.39;1720404;80;21022;-61
2021/11/14 02:46:14;;;;;;;29.37;17.87;;;;;;;3.56;65.93;101660.34;1736688;80;21553;-60
2021/11/14 02:48:41;;;;;;;26.42;16.60;;;;;;;3.59;66.10;101655.89;1734469;80;21106;-60
2021/11/14 02:51:13;;;;;;;29.25;16.75;;;;;;;3.70;66.17;101662.09;1733055;80;21528;-61
2021/11/14 02:53:39;;;;;;;27.93;16.57;;;;;;;3.79;66.34;101664.39;1756748;79;21113;-61
2021/11/14 02:56:06;;;;;;;27.32;15.78;;;;;;;3.87;66.45;101657.20;1797452;77;21027;-60
2021/11/14 02:58:33;;;;;;;29.35;15.38;;;;;;;3.94;66.47;101664.83;1799180;77;21112;-60
2021/11/14 03:01:07;;;;;;;26.20;16.30;;;;;;;3.96;66.66;101659.95;1797448;79;21042;-61
2021/11/14 03:03:34;;;;;;;29.12;17.23;;;;;;;3.98;66.53;101657.30;1795901;79;21115;-61
2021/11/14 03:06:03;;;;;;;27.05;17.23;;;;;;;3.97;66.47;101660.37;1789997;77;21074;-60
2021/11/14 03:08:31;;;;;;;26.93;16.62;;;;;;;3.97;66.38;101656.89;1796143;77;21061;-60
2021/11/14 03:10:58;;;;;;;26.40;17.65;;;;;;;3.93;66.29;101656.59;1779740;79;21011;-61
2021/11/14 03:13:24;;;;;;;24.75;16.00;;;;;;;3.87;66.21;101654.59;1799552;79;21668;-61
2021/11/14 03:15:55;;;;;;;27.93;17.07;;;;;;;3.82;66.27;101655.19;1777982;79;21219;-60
2021/11/14 03:18:22;;;;;;;27.30;17.10;;;;;;;3.76;66.35;101652.77;1798682;77;21046;-61
2021/11/14 03:20:50;;;;;;;29.27;16.85;;;;;;;3.73;66.46;101652.86;1783021;79;21050;-62
2021/11/14 03:23:17;;;;;;;28.75;16.27;;;;;;;3.68;66.42;101656.05;1776596;79;21757;-62
2021/11/14 03:25:44;;;;;;;27.73;16.32;;;;;;;3.67;66.48;101654.37;1760882;79;21536;-62
2021/11/14 03:28:11;;;;;;;29.55;16.80;;;;;;;3.74;66.42;101658.48;1792296;78;21289;-62
2021/11/14 03:30:37;;;;;;;32.95;16.15;;;;;;;3.81;66.45;101649.56;1745332;81;21012;-62
2021/11/14 03:33:07;;;;;;;27.73;16.73;;;;;;;3.85;66.45;101642.08;1776332;79;21078;-62
2021/11/14 03:35:51;;;;;;;28.00;15.70;;;;;;;3.91;66.45;101643.63;1752383;81;21116;-62
2021/11/14 03:38:24;;;;;;;36.28;18.57;;;;;;;3.89;66.54;101646.27;1742192;81;21070;-61
2021/11/14 03:40:51;;;;;;;29.92;16.32;;;;;;;3.87;66.54;101647.24;1723303;81;21148;-62
2021/11/14 03:43:17;;;;;;;30.02;15.98;;;;;;;3.84;66.59;101641.66;1795550;79;21466;-62
2021/11/14 03:45:44;;;;;;;24.67;17.62;;;;;;;3.82;66.51;101638.27;1767546;79;20979;-61
2021/11/14 03:48:11;;;;;;;25.52;16.27;;;;;;;3.76;66.43;101637.14;1742924;80;21670;-61
2021/11/14 03:50:39;;;;;;;25.17;16.93;;;;;;;3.68;66.49;101633.93;1770079;79;21066;-62
2021/11/14 03:53:07;;;;;;;32.53;17.07;;;;;;;3.62;66.54;101636.74;1762518;80;21859;-62
2021/11/14 03:55:35;;;;;;;27.25;16.60;;;;;;;3.56;66.58;101636.46;1774213;78;21129;-61
2021/11/14 03:58:02;;;;;;;36.23;17.02;;;;;;;3.50;66.67;101636.21;1795918;78;21077;-61
2021/11/14 04:00:32;;;;;;;28.85;17.82;;;;;;;3.43;66.81;101632.09;1794688;78;21077;-61
2021/11/14 04:02:58;;;;;;;31.82;17.30;;;;;;;3.43;66.79;101640.33;1783841;78;21100;-61
2021/11/14 04:05:28;;;;;;;26.70;17.35;;;;;;;3.51;66.74;101646.16;1798425;78;21123;-61
2021/11/14 04:07:57;;;;;;;29.27;16.67;;;;;;;3.56;66.65;101643.42;1794605;77;21051;-62
2021/11/14 04:11:18;;;;;;;26.25;15.63;;;;;;;3.67;66.75;101642.66;1864313;75;22551;-61
2021/11/14 04:13:44;;;;;;;25.23;13.88;;;;;;;3.66;66.78;101646.14;1813074;75;21065;-61
2021/11/14 04:16:11;;;;;;;25.48;16.05;;;;;;;3.65;66.77;101644.46;1841301;75;21065;-61
2021/11/14 04:18:38;;;;;;;30.45;16.57;;;;;;;3.64;66.73;101653.16;1809682;77;21076;-61
2021/11/14 04:21:06;;;;;;;25.27;15.90;;;;;;;3.64;66.72;101657.06;1814561;75;21641;-61
2021/11/14 04:23:35;;;;;;;27.27;16.07;;;;;;;3.64;66.58;101657.06;1844913;75;21595;-60
2021/11/14 04:26:03;;;;;;;26.42;15.98;;;;;;;3.60;66.53;101661.52;1844283;75;21104;-60
2021/11/14 04:28:32;;;;;;;25.75;16.48;;;;;;;3.56;66.52;101655.14;1838023;75;21114;-61
2021/11/14 04:30:59;;;;;;;28.62;16.80;;;;;;;3.52;66.62;101660.89;1844579;75;21076;-61
2021/11/14 04:33:26;;;;;;;26.05;16.35;;;;;;;3.49;66.72;101659.67;1843246;75;21068;-60
2021/11/14 04:35:53;;;;;;;24.92;16.40;;;;;;;3.45;66.83;101658.92;1830965;75;21058;-61
2021/11/14 04:38:20;;;;;;;24.63;16.17;;;;;;;3.42;66.99;101655.10;1810197;77;21187;-61
2021/11/14 04:40:47;;;;;;;25.77;16.25;;;;;;;3.45;67.01;101660.22;1845573;75;21093;-60
2021/11/14 04:43:17;;;;;;;27.40;16.17;;;;;;;3.57;66.94;101663.36;1845510;75;22320;-61
2021/11/14 04:45:43;;;;;;;26.17;14.47;;;;;;;3.64;66.86;101661.80;1834939;75;22290;-61
2021/11/14 04:48:10;;;;;;;22.22;14.07;;;;;;;3.73;66.81;101664.57;1844518;75;21113;-60
2021/11/14 04:50:37;;;;;;;20.72;15.10;;;;;;;3.78;66.92;101658.77;1831361;75;21046;-61
2021/11/14 04:53:04;;;;;;;27.42;15.90;;;;;;;3.81;67.02;101661.28;1838060;75;21078;-61
2021/11/14 04:55:33;;;;;;;22.40;15.20;;;;;;;3.82;67.00;101659.09;1837570;75;21073;-61
2021/11/14 04:58:00;;;;;;;28.52;16.15;;;;;;;3.85;66.82;101655.09;1776270;78;21051;-60
2021/11/14 05:00:37;;;;;;;24.12;15.40;;;;;;;3.85;66.79;101659.00;1779041;80;21049;-60
2021/11/14 05:03:04;;;;;;;25.88;15.25;;;;;;;3.84;66.74;101659.89;1792883;78;21473;-60
2021/11/14 05:05:32;;;;;;;27.85;15.30;;;;;;;3.85;66.74;101660.31;1802732;77;21512;-60
2021/11/14 05:08:00;;;;;;;27.60;16.17;;;;;;;3.83;66.53;101663.41;1810360;77;21035;-60
2021/11/14 05:10:28;;;;;;;29.30;17.55;;;;;;;3.78;66.49;101661.38;1758990;78;21069;-63
2021/11/14 05:12:55;;;;;;;25.27;14.68;;;;;;;3.73;66.56;101671.08;1738325;81;21085;-60
2021/11/14 05:15:21;;;;;;;23.07;16.25;;;;;;;3.69;66.72;101671.63;1754389;80;21786;-60
2021/11/14 05:17:48;;;;;;;21.80;15.15;;;;;;;3.72;66.79;101672.84;1758781;79;21163;-60
2021/11/14 05:20:15;;;;;;;27.67;16.52;;;;;;;3.85;66.62;101667.24;1759825;79;21090;-59
2021/11/14 05:22:41;;;;;;;24.12;14.80;;;;;;;3.94;66.58;101670.03;1780887;80;21610;-60
2021/11/14 05:25:09;;;;;;;24.10;15.13;;;;;;;4.02;66.52;101669.34;1779730;80;21034;-60
2021/11/14 05:27:35;;;;;;;23.42;15.55;;;;;;;4.06;66.52;101673.08;1748890;79;21095;-60
2021/11/14 05:30:04;;;;;;;24.77;16.37;;;;;;;4.09;66.67;101672.14;1765511;80;21125;-60
2021/11/14 05:32:31;;;;;;;27.05;15.45;;;;;;;4.11;66.60;101673.40;1783000;78;20982;-60
2021/11/14 05:34:57;;;;;;;32.95;15.72;;;;;;;4.09;66.61;101666.93;1748917;80;21465;-60
2021/11/14 05:37:24;;;;;;;22.93;15.20;;;;;;;4.05;66.67;101670.52;1754822;78;21006;-61
2021/11/14 05:39:50;;;;;;;26.02;14.85;;;;;;;4.00;66.78;101675.91;1781257;79;21474;-60
2021/11/14 05:42:16;;;;;;;21.05;13.88;;;;;;;3.96;66.90;101681.25;1778220;78;21081;-61
2021/11/14 05:44:43;;;;;;;21.73;13.65;;;;;;;3.88;67.07;101685.38;1776173;78;21073;-59
2021/11/14 05:47:10;;;;;;;28.42;14.05;;;;;;;3.83;67.32;101679.47;1769366;79;21064;-60
2021/11/14 05:49:36;;;;;;;21.40;14.70;;;;;;;3.84;67.37;101693.73;1760749;79;21312;-60
2021/11/14 05:52:03;;;;;;;22.30;13.90;;;;;;;3.94;67.27;101693.47;1784989;78;21021;-60
2021/11/14 05:54:30;;;;;;;21.87;14.73;;;;;;;4.01;67.34;101689.77;1756986;78;21031;-58
2021/11/14 05:56:57;;;;;;;18.50;13.25;;;;;;;4.09;67.44;101696.89;1742553;80;21569;-59
2021/11/14 06:02:04;;;;;;;22.40;13.93;;;;;;;4.17;67.79;101694.89;1755679;79;21557;-59
2021/11/14 06:04:49;;;;;;;25.48;13.72;;;;;;;4.20;67.83;101700.44;1755155;79;21671;-59
2021/11/14 06:07:02;;;;;;;22.32;14.70;;;;;;;4.20;67.80;101697.41;1759466;79;21023;-59
2021/11/14 06:09:28;;;;;;;24.50;14.35;;;;;;;4.21;67.78;101701.70;1732756;80;21075;-62
2021/11/14 06:11:55;;;;;;;26.00;13.83;;;;;;;4.18;67.72;101691.83;1764804;79;20976;-59
2021/11/14 06:14:21;;;;;;;27.93;14.98;;;;;;;4.16;67.83;101702.30;1733905;80;21062;-59
2021/11/14 06:16:48;;;;;;;23.60;13.68;;;;;;;4.15;67.86;101702.34;1758167;80;21569;-60
2021/11/14 06:19:15;;;;;;;24.95;14.47;;;;;;;4.12;67.94;101705.91;1763895;80;21129;-60
2021/11/14 06:21:42;;;;;;;20.80;14.15;;;;;;;4.16;67.98;101708.81;1772862;79;21435;-60
2021/11/14 06:24:09;;;;;;;18.55;13.03;;;;;;;4.30;67.89;101704.91;1773243;79;21055;-61
2021/11/14 06:26:35;;;;;;;22.25;13.25;;;;;;;4.41;67.77;101707.56;1744471;80;20994;-60
2021/11/14 06:29:02;;;;;;;20.25;12.93;;;;;;;4.51;67.81;101710.72;1773027;79;21012;-61
2021/11/14 06:31:28;;;;;;;25.95;15.15;;;;;;;4.59;67.84;101711.31;1774257;80;21081;-60
2021/11/14 06:33:55;;;;;;;21.52;14.25;;;;;;;4.65;67.83;101710.25;1742722;80;21093;-60
2021/11/14 06:36:21;;;;;;;21.52;14.28;;;;;;;4.69;67.66;101710.56;1775617;79;21081;-61
2021/11/14 06:38:48;;;;;;;21.93;14.18;;;;;;;4.73;67.66;101717.82;1772682;79;21553;-59
2021/11/14 06:41:15;;;;;;;26.85;14.33;;;;;;;4.76;67.65;101713.81;1771864;79;21116;-60
2021/11/14 06:43:41;;;;;;;22.45;14.10;;;;;;;4.81;67.62;101714.50;1745040;80;21785;-60
2021/11/14 06:46:08;;;;;;;22.50;14.23;;;;;;;4.81;67.41;101721.86;1771315;80;21077;-60
2021/11/14 06:48:34;;;;;;;26.57;14.80;;;;;;;4.79;67.37;101718.89;1754500;80;21079;-60
2021/11/14 06:51:00;;;;;;;22.00;14.68;;;;;;;4.77;67.32;101720.70;1774404;80;21589;-60
2021/11/14 06:53:27;;;;;;;21.70;13.22;;;;;;;4.76;67.27;101723.78;1773661;79;21089;-59
2021/11/14 06:55:54;;;;;;;21.55;13.98;;;;;;;4.83;67.17;101721.34;1766536;80;23417;-65
2021/11/14 06:58:21;;;;;;;17.90;13.13;;;;;;;4.90;67.09;101715.47;1745816;78;21112;-60
2021/11/14 07:00:48;;;;;;;20.02;12.88;;;;;;;4.99;67.28;101716.47;1736845;80;21093;-60
2021/11/14 07:03:14;;;;;;;26.57;14.30;;;;;;;5.08;67.36;101723.54;1729010;80;21068;-60
2021/11/14 07:05:41;;;;;;;19.92;13.75;;;;;;;5.13;67.38;101725.09;1763420;80;21066;-59
2021/11/14 07:08:08;;;;;;;21.35;14.55;;;;;;;5.15;67.14;101716.75;1739492;80;21130;-59
2021/11/14 07:10:35;;;;;;;22.42;14.87;;;;;;;5.16;67.14;101725.00;1781398;79;21073;-59
2021/11/14 07:13:02;;;;;;;24.57;14.63;;;;;;;5.18;67.13;101723.17;1778732;79;21535;-60
2021/11/14 07:15:28;;;;;;;21.85;15.32;;;;;;;5.19;66.97;101727.93;1802106;78;21097;-59
2021/11/14 07:17:56;;;;;;;23.47;14.18;;;;;;;5.18;66.98;101729.70;1797025;78;22339;-59
2021/11/14 07:20:23;;;;;;;25.30;15.15;;;;;;;5.18;66.77;101723.64;1777139;79;22585;-59
2021/11/14 07:22:49;;;;;;;25.12;14.68;;;;;;;5.14;67.01;101722.02;1797444;78;21095;-58
2021/11/14 07:25:19;;;;;;;25.37;14.47;;;;;;;5.18;67.09;101724.94;1797894;78;21297;-60
2021/11/14 07:27:49;;;;;;;22.77;15.48;;;;;;;5.27;66.92;101721.98;1796687;78;21128;-59
2021/11/14 07:30:15;;;;;;;22.02;15.38;;;;;;;5.36;66.71;101731.23;1801831;78;21525;-60
2021/11/14 07:32:42;;;;;;;25.85;14.35;;;;;;;5.44;66.67;101728.35;1800484;78;21082;-60
2021/11/14 07:35:12;;;;;;;28.42;15.72;;;;;;;5.50;66.74;101722.45;1795621;78;21085;-62
2021/11/14 07:37:41;;;;;;;22.27;15.15;;;;;;;5.57;66.79;101728.30;1801028;78;21079;-61
2021/11/14 07:40:09;;;;;;;25.32;15.23;;;;;;;5.59;66.54;101727.77;1798750;78;21705;-61
2021/11/14 07:42:37;;;;;;;23.65;15.63;;;;;;;5.56;66.41;101729.19;1795798;78;21113;-62
2021/11/14 07:45:06;;;;;;;21.42;14.75;;;;;;;5.51;66.47;101721.52;1774826;78;21284;-61
2021/11/14 07:47:34;;;;;;;30.95;16.05;;;;;;;5.51;66.60;101716.77;1792570;78;21098;-61
2021/11/14 07:50:01;;;;;;;22.80;14.78;;;;;;;5.53;66.53;101716.24;1798025;78;21086;-61
2021/11/14 07:52:37;;;;;;;25.30;15.23;;;;;;;5.53;66.50;101718.86;1793739;78;21052;-64
2021/11/14 07:55:00;;;;;;;23.27;14.10;;;;;;;5.52;66.43;101715.41;1725233;78;21054;-61
2021/11/14 07:57:26;;;;;;;26.48;14.87;;;;;;;5.49;66.49;101715.98;1796475;78;21196;-61
2021/11/14 07:59:53;;;;;;;23.15;14.40;;;;;;;5.52;66.33;101711.48;1799443;78;21075;-61
2021/11/14 08:02:19;;;;;;;24.75;14.20;;;;;;;5.59;66.22;101716.86;1796738;78;21101;-63
2021/11/14 08:04:47;;;;;;;25.00;15.40;;;;;;;5.69;66.09;101713.92;1802706;78;21325;-63
2021/11/14 08:07:14;;;;;;;26.85;15.58;;;;;;;5.76;66.11;101713.61;1792721;78;21101;-62
2021/11/14 08:09:40;;;;;;;23.70;16.20;;;;;;;5.85;66.25;101711.55;1797148;78;21093;-62
2021/11/14 08:12:08;;;;;;;22.87;15.78;;;;;;;5.86;66.07;101716.72;1801051;78;21045;-61
2021/11/14 08:14:37;;;;;;;26.02;15.98;;;;;;;5.86;66.17;101715.41;1809196;78;21142;-62
2021/11/14 08:17:04;;;;;;;27.80;17.32;;;;;;;5.89;66.16;101716.61;1804553;78;21089;-61
2021/11/14 08:19:31;;;;;;;26.42;16.45;;;;;;;5.93;66.06;101720.81;1800979;78;21085;-62
2021/11/14 08:21:57;;;;;;;28.32;18.42;;;;;;;5.96;66.04;101710.72;1801662;77;21069;-63
2021/11/14 08:24:25;;;;;;;24.70;14.90;;;;;;;5.98;65.93;101712.80;1804606;77;21059;-63
2021/11/14 08:26:51;;;;;;;28.65;16.52;;;;;;;5.99;65.87;101704.07;1768136;79;21221;-63
2021/11/14 08:29:18;;;;;;;28.27;17.57;;;;;;;6.00;65.76;101706.22;1772895;79;21078;-62
2021/11/14 08:31:44;;;;;;;25.92;16.67;;;;;;;5.99;65.71;101703.23;1778668;78;21041;-62
2021/11/14 08:34:13;;;;;;;26.15;17.45;;;;;;;6.04;65.49;101698.67;1804236;77;21551;-62
2021/11/14 08:36:39;;;;;;;31.48;16.62;;;;;;;6.13;65.26;101699.13;1790562;78;21575;-61
2021/11/14 08:39:05;;;;;;;28.32;17.52;;;;;;;6.19;65.17;101691.98;1780097;78;21166;-63
2021/11/14 08:41:33;;;;;;;28.65;17.30;;;;;;;6.25;65.22;101695.63;1783965;78;21388;-63
2021/11/14 08:43:59;;;;;;;34.00;18.42;;;;;;;6.25;65.18;101688.63;1787302;78;21129;-62
2021/11/14 08:46:25;;;;;;;35.80;18.90;;;;;;;6.28;65.15;101691.59;1785616;78;23284;-62
2021/11/14 08:48:53;;;;;;;24.67;16.93;;;;;;;6.28;65.14;101688.97;1786013;78;21053;-61
2021/11/14 08:51:21;;;;;;;26.73;17.25;;;;;;;6.29;65.24;101687.61;1784217;78;21541;-55
2021/11/14 08:53:47;;;;;;;29.75;18.70;;;;;;;6.30;65.21;101684.52;1786712;78;21605;-56
2021/11/14 08:56:14;;;;;;;30.77;17.75;;;;;;;6.32;65.36;101682.69;1781231;78;21442;-57
2021/11/14 08:58:41;;;;;;;31.20;18.60;;;;;;;6.34;65.40;101686.11;1787657;78;21184;-59
2021/11/14 09:01:09;;;;;;;32.17;18.57;;;;;;;6.35;65.37;101683.88;1788308;78;20983;-59
2021/11/14 09:03:36;;;;;;;30.20;17.95;;;;;;;6.32;65.45;101678.33;1784360;78;21157;-58
2021/11/14 09:06:03;;;;;;;32.25;19.65;;;;;;;6.38;65.42;101678.52;1787233;78;21317;-59
2021/11/14 09:08:29;;;;;;;29.40;18.80;;;;;;;6.50;65.30;101678.00;1788996;78;21118;-59
2021/11/14 09:10:56;;;;;;;29.95;18.20;;;;;;;6.60;65.37;101675.84;1798910;77;22419;-59
2021/11/14 09:13:23;;;;;;;31.42;19.92;;;;;;;6.68;65.36;101674.22;1773569;79;21426;-59
2021/11/14 09:15:52;;;;;;;33.45;19.60;;;;;;;6.72;65.39;101668.40;1765351;79;21050;-59
2021/11/14 09:18:19;;;;;;;30.90;19.57;;;;;;;6.74;65.33;101670.05;1781989;79;21054;-59
2021/11/14 09:20:46;;;;;;;28.80;20.40;;;;;;;6.79;65.32;101672.00;1782328;79;21093;-60
2021/11/14 09:23:15;;;;;;;32.65;20.62;;;;;;;6.85;65.20;101666.95;1775874;79;21121;-60
2021/11/14 09:25:42;;;;;;;34.83;21.17;;;;;;;6.86;64.98;101667.36;1752764;79;21630;-60
2021/11/14 09:28:09;;;;;;;36.95;21.68;;;;;;;6.84;64.75;101665.23;1778639;79;21077;-61
2021/11/14 09:30:36;;;;;;;29.90;19.57;;;;;;;6.80;64.68;101667.61;1773064;79;21424;-62
2021/11/14 09:33:04;;;;;;;26.75;19.52;;;;;;;6.76;64.79;101659.05;1791918;78;21101;-61
2021/11/14 09:35:32;;;;;;;32.80;20.10;;;;;;;6.77;64.81;101662.51;1776006;79;21146;-64
2021/11/14 09:37:58;;;;;;;30.02;17.75;;;;;;;6.82;64.84;101660.07;1780518;79;21117;-61
2021/11/14 09:40:25;;;;;;;31.02;18.57;;;;;;;6.91;65.05;101661.89;1774181;79;21360;-62
2021/11/14 09:42:51;;;;;;;28.60;18.95;;;;;;;6.96;65.11;101662.10;1779985;79;21103;-62
2021/11/14 09:45:18;;;;;;;33.70;19.52;;;;;;;7.02;65.15;101667.04;1765582;80;21410;-62
2021/11/14 09:47:44;;;;;;;34.08;20.48;;;;;;;7.05;65.02;101659.52;1742812;80;22460;-62
2021/11/14 09:50:11;;;;;;;30.97;19.40;;;;;;;7.02;64.95;101659.19;1764076;79;21096;-61
2021/11/14 09:52:39;;;;;;;29.12;19.15;;;;;;;6.98;65.04;101651.56;1778357;79;21128;-63
2021/11/14 09:55:08;;;;;;;30.43;19.02;;;;;;;6.95;65.05;101647.77;1762673;79;21089;-62
2021/11/14 09:57:36;;;;;;;33.88;19.50;;;;;;;6.94;65.13;101642.98;1754532;79;21112;-60
2021/11/14 10:00:06;;;;;;;29.50;19.17;;;;;;;6.94;65.10;101640.83;1759380;79;21069;-59
2021/11/14 10:02:37;;;;;;;29.98;19.70;;;;;;;6.92;65.27;101643.98;1781672;79;21090;-61
2021/11/14 10:05:05;;;;;;;30.45;19.40;;;;;;;6.95;65.42;101639.45;1734546;79;21136;-65
2021/11/14 10:07:32;;;;;;;26.85;18.77;;;;;;;7.06;65.20;101636.34;1754481;79;21127;-64
2021/11/14 10:09:59;;;;;;;27.90;18.15;;;;;;;7.14;65.16;101632.92;1757417;79;21047;-63
2021/11/14 10:12:28;;;;;;;30.35;18.45;;;;;;;7.21;65.26;101637.41;1738780;79;22412;-63
2021/11/14 10:15:18;;;;;;;27.70;18.00;;;;;;;7.23;65.32;101635.60;1754050;79;21081;-63
2021/11/14 10:17:52;;;;;;;29.37;18.42;;;;;;;7.25;65.31;101633.75;1773340;78;21582;-63
2021/11/14 10:20:25;;;;;;;30.55;18.82;;;;;;;7.25;65.40;101625.43;1778499;78;20990;-64
2021/11/14 10:23:01;;;;;;;33.92;21.10;;;;;;;7.24;65.47;101632.88;1756352;80;21559;-62
2021/11/14 10:25:30;;;;;;;28.12;19.02;;;;;;;7.24;65.61;101635.50;1778594;78;21120;-63
2021/11/14 10:28:01;;;;;;;30.65;19.32;;;;;;;7.28;65.44;101634.06;1748293;80;20898;-63
2021/11/14 10:30:29;;;;;;;28.25;18.70;;;;;;;7.28;65.49;101631.44;1745461;80;21093;-62
2021/11/14 10:32:59;;;;;;;28.55;20.17;;;;;;;7.28;65.47;101634.06;1776791;78;21013;-63
2021/11/14 10:35:28;;;;;;;29.63;18.17;;;;;;;7.31;65.41;101638.69;1778601;78;22342;-63
2021/11/14 10:37:56;;;;;;;24.92;17.57;;;;;;;7.38;65.21;101631.40;1780342;78;21452;-63
2021/11/14 10:40:26;;;;;;;28.70;18.25;;;;;;;7.40;65.24;101629.58;1758113;78;21101;-61
2021/11/14 10:42:58;;;;;;;26.15;18.85;;;;;;;7.43;65.34;101628.10;1743921;80;21066;-61
2021/11/14 10:45:26;;;;;;;31.70;19.15;;;;;;;7.45;65.58;101627.59;1754194;79;21097;-62
2021/11/14 10:48:01;;;;;;;32.55;21.15;;;;;;;7.50;65.58;101620.37;1751374;79;21062;-62
2021/11/14 10:50:39;;;;;;;36.47;20.63;;;;;;;7.56;65.61;101623.98;1753385;79;21147;-62
2021/11/14 10:53:11;;;;;;;37.67;22.35;;;;;;;7.58;65.62;101620.86;1749652;79;21562;-62
2021/11/14 10:55:53;;;;;;;26.85;20.10;;;;;;;7.61;65.54;101621.16;1749669;79;21431;-61
2021/11/14 10:58:22;;;;;;;34.13;20.68;;;;;;;7.61;65.67;101615.44;1751163;78;21618;-62
2021/11/14 11:00:52;;;;;;;32.03;20.10;;;;;;;7.60;65.65;101612.45;1778558;78;21040;-63
2021/11/14 11:03:19;;;;;;;30.72;19.60;;;;;;;7.65;65.54;101612.69;1777302;78;21855;-61
2021/11/14 11:05:47;;;;;;;31.37;19.00;;;;;;;7.72;65.51;101609.70;1778616;78;21600;-63
2021/11/14 11:08:19;;;;;;;30.62;18.37;;;;;;;7.79;65.72;101607.16;1775437;78;21116;-60
2021/11/14 11:10:52;;;;;;;28.95;20.08;;;;;;;7.89;65.72;101611.97;1778159;78;21577;-62
2021/11/14 11:13:36;;;;;;;29.65;20.20;;;;;;;7.89;65.95;101607.56;1771785;78;21651;-61
2021/11/14 11:16:06;;;;;;;32.58;20.68;;;;;;;7.91;66.00;101614.05;1782272;78;21121;-63
2021/11/14 11:18:32;;;;;;;27.90;19.25;;;;;;;7.92;66.03;101613.14;1780632;79;21075;-59
2021/11/14 11:21:02;;;;;;;32.85;21.75;;;;;;;7.95;65.90;101607.28;1809183;77;21153;-58
2021/11/14 11:23:28;;;;;;;29.15;20.45;;;;;;;7.95;65.81;101607.28;1805848;77;21033;-59